createdAt,value
2019-01-02T00:02:15.894Z,3.00
2019-01-02T00:05:38.777Z,3.00
2019-01-02T00:09:01.557Z,3.10
2019-01-02T00:12:24.077Z,3.00
2019-01-02T00:15:46.375Z,2.90
2019-01-02T00:19:09.176Z,3.00
2019-01-02T00:22:32.189Z,2.90
2019-01-02T00:25:55.462Z,2.90
2019-01-02T00:29:18.332Z,2.80
2019-01-02T00:32:41.274Z,2.80
2019-01-02T00:36:04.056Z,2.80
2019-01-02T00:39:26.749Z,2.80
2019-01-02T00:42:49.409Z,2.80
2019-01-02T00:46:12.346Z,2.80
2019-01-02T00:49:35.001Z,2.80
2019-01-02T00:52:57.778Z,2.80
2019-01-02T00:56:20.937Z,2.80
2019-01-02T00:59:43.877Z,2.80
2019-01-02T01:03:07.262Z,2.80
2019-01-02T01:06:30.245Z,2.70
2019-01-02T01:09:53.030Z,2.80
2019-01-02T01:13:16.022Z,2.80
2019-01-02T01:16:38.496Z,2.80
2019-01-02T01:20:01.257Z,2.80
2019-01-02T01:23:24.358Z,2.80
2019-01-02T01:26:46.937Z,2.70
2019-01-02T01:30:10.131Z,2.80
2019-01-02T01:33:32.508Z,2.80
2019-01-02T01:36:55.195Z,2.70
2019-01-02T01:40:18.006Z,2.70
2019-01-02T01:43:40.405Z,2.70
2019-01-02T01:47:02.877Z,2.70
2019-01-02T01:50:25.569Z,2.60
2019-01-02T01:53:48.005Z,2.70
2019-01-02T01:57:10.595Z,2.70
2019-01-02T02:00:33.330Z,2.70
2019-01-02T02:03:55.546Z,2.70
2019-01-02T02:07:18.413Z,2.70
2019-01-02T02:10:40.858Z,2.60
2019-01-02T02:14:03.270Z,2.60
2019-01-02T02:17:25.673Z,2.70
2019-01-02T02:20:48.496Z,2.70
2019-01-02T02:24:11.287Z,2.70
2019-01-02T02:27:33.857Z,2.80
2019-01-02T02:30:56.921Z,2.70
2019-01-02T02:34:20.173Z,2.70
2019-01-02T02:37:43.410Z,2.70
2019-01-02T02:41:06.145Z,2.70
2019-01-02T02:44:28.973Z,2.80
2019-01-02T02:47:51.518Z,2.80
2019-01-02T02:51:14.757Z,2.90
2019-01-02T02:54:37.866Z,2.90
2019-01-02T02:58:00.432Z,2.90
2019-01-02T03:01:23.060Z,2.90
2019-01-02T03:04:46.491Z,3.00
2019-01-02T03:08:09.618Z,3.00
2019-01-02T03:11:32.908Z,3.00
2019-01-02T03:14:55.687Z,3.00
2019-01-02T03:18:18.717Z,2.90
2019-01-02T03:21:41.621Z,2.90
2019-01-02T03:25:04.957Z,2.90
2019-01-02T03:28:27.896Z,3.00
2019-01-02T03:31:51.000Z,3.00
2019-01-02T03:35:13.850Z,3.10
2019-01-02T03:38:36.485Z,3.10
2019-01-02T03:41:58.836Z,3.20
2019-01-02T03:45:21.806Z,3.20
2019-01-02T03:48:44.703Z,3.20
2019-01-02T03:52:07.294Z,3.30
2019-01-02T03:55:29.744Z,3.30
2019-01-02T03:58:52.189Z,3.20
2019-01-02T04:02:14.370Z,3.20
2019-01-02T04:05:36.773Z,3.00
2019-01-02T04:08:59.464Z,2.70
2019-01-02T04:12:21.600Z,2.70
2019-01-02T04:15:44.144Z,2.60
2019-01-02T04:19:06.665Z,2.60
2019-01-02T04:22:29.045Z,2.60
2019-01-02T04:25:51.507Z,2.60
2019-01-02T04:29:14.296Z,2.60
2019-01-02T04:32:36.914Z,2.60
2019-01-02T04:35:59.002Z,2.60
2019-01-02T04:39:21.682Z,2.60
2019-01-02T04:42:44.493Z,2.60
2019-01-02T04:46:06.893Z,2.70
2019-01-02T04:49:29.399Z,2.80
2019-01-02T04:52:52.118Z,2.80
2019-01-02T04:56:14.557Z,2.80
2019-01-02T04:59:37.264Z,2.80
2019-01-02T05:03:00.085Z,2.80
2019-01-02T05:06:22.732Z,2.80
2019-01-02T05:09:45.629Z,2.90
2019-01-02T05:13:08.340Z,3.00
2019-01-02T05:16:30.886Z,3.00
2019-01-02T05:19:53.110Z,3.00
2019-01-02T05:23:15.628Z,3.10
2019-01-02T05:26:38.118Z,3.10
2019-01-02T05:30:00.696Z,3.10
2019-01-02T05:33:23.133Z,3.20
2019-01-02T05:36:45.525Z,3.10
2019-01-02T05:40:11.127Z,3.10
2019-01-02T05:43:33.668Z,3.10
2019-01-02T05:46:56.332Z,3.10
2019-01-02T05:50:18.824Z,3.10
2019-01-02T05:53:41.334Z,3.20
2019-01-02T05:57:03.842Z,3.10
2019-01-02T06:00:27.351Z,3.10
2019-01-02T06:03:49.941Z,3.10
2019-01-02T06:07:12.314Z,3.20
2019-01-02T06:10:34.964Z,3.20
2019-01-02T06:13:57.412Z,3.20
2019-01-02T06:17:20.090Z,3.40
2019-01-02T06:20:42.895Z,3.40
2019-01-02T06:24:05.042Z,3.40
2019-01-02T06:27:27.533Z,3.40
2019-01-02T06:30:50.213Z,3.40
2019-01-02T06:34:12.905Z,3.40
2019-01-02T06:37:35.059Z,3.40
2019-01-02T06:40:57.733Z,3.50
2019-01-02T06:44:20.133Z,3.50
2019-01-02T06:47:42.348Z,3.50
2019-01-02T06:51:04.456Z,3.50
2019-01-02T06:54:27.262Z,3.50
2019-01-02T06:57:49.488Z,3.60
2019-01-02T07:01:11.959Z,3.60
2019-01-02T07:04:34.781Z,3.60
2019-01-02T07:07:57.523Z,3.60
2019-01-02T07:11:20.415Z,3.70
2019-01-02T07:14:42.607Z,3.70
2019-01-02T07:18:04.957Z,3.80
2019-01-02T07:21:27.281Z,3.80
2019-01-02T07:24:49.654Z,3.70
2019-01-02T07:28:12.348Z,3.70
2019-01-02T07:31:34.721Z,3.70
2019-01-02T07:35:59.959Z,3.70
2019-01-02T07:39:52.858Z,3.70
2019-01-02T07:43:47.194Z,3.70
2019-01-02T07:47:59.425Z,3.70
2019-01-02T07:51:43.841Z,3.70
2019-01-02T07:55:31.570Z,3.80
2019-01-02T07:59:21.558Z,3.70
2019-01-02T08:03:13.110Z,3.70
2019-01-02T08:07:18.660Z,3.60
2019-01-02T08:11:30.967Z,3.60
2019-01-02T08:15:23.685Z,3.60
2019-01-02T08:19:29.913Z,3.60
2019-01-02T08:23:14.047Z,3.50
2019-01-02T08:27:36.217Z,3.40
2019-01-02T08:31:32.117Z,3.40
2019-01-02T08:35:29.836Z,3.20
2019-01-02T08:39:16.812Z,3.20
2019-01-02T08:43:18.022Z,3.20
2019-01-02T08:47:23.962Z,3.20
2019-01-02T08:51:12.335Z,3.20
2019-01-02T08:55:15.070Z,3.10
2019-01-02T08:58:48.860Z,3.20
2019-01-02T09:02:36.801Z,3.00
2019-01-02T09:06:42.053Z,3.00
2019-01-02T09:10:44.597Z,2.30
2019-01-02T09:15:04.633Z,1.60
2019-01-02T09:19:05.701Z,1.00
2019-01-02T09:22:54.086Z,0.80
2019-01-02T09:26:55.826Z,0.80
2019-01-02T09:30:58.136Z,1.00
2019-01-02T09:34:34.736Z,1.10
2019-01-02T09:38:35.141Z,1.20
2019-01-02T09:42:41.433Z,1.30
2019-01-02T09:46:42.058Z,1.30
2019-01-02T09:50:57.249Z,1.30
2019-01-02T09:55:01.249Z,1.40
2019-01-02T09:58:58.875Z,1.40
2019-01-02T10:02:48.932Z,1.40
2019-01-02T10:06:59.426Z,1.50
2019-01-02T10:10:57.972Z,1.50
2019-01-02T10:14:59.491Z,1.60
2019-01-02T10:18:46.478Z,1.60
2019-01-02T10:22:51.739Z,1.60
2019-01-02T10:26:30.963Z,1.70
2019-01-02T10:30:46.086Z,1.80
2019-01-02T10:34:38.990Z,1.90
2019-01-02T10:38:27.872Z,2.00
2019-01-02T10:42:50.375Z,2.10
2019-01-02T10:46:54.520Z,2.20
2019-01-02T10:50:33.034Z,2.20
2019-01-02T10:54:35.266Z,2.30
2019-01-02T10:58:20.059Z,2.50
2019-01-02T11:02:16.500Z,2.40
2019-01-02T11:06:08.629Z,2.40
2019-01-02T11:10:07.086Z,2.50
2019-01-02T11:13:53.659Z,2.50
2019-01-02T11:17:24.924Z,2.50
2019-01-02T11:21:37.326Z,2.80
2019-01-02T11:25:18.008Z,2.90
2019-01-02T11:29:08.850Z,3.00
2019-01-02T11:33:09.115Z,3.00
2019-01-02T11:36:50.132Z,3.10
2019-01-02T11:40:40.952Z,3.10
2019-01-02T11:44:36.336Z,3.10
2019-01-02T11:47:58.470Z,3.10
2019-01-02T11:51:20.553Z,3.20
2019-01-02T11:54:42.965Z,3.30
2019-01-02T11:58:05.262Z,3.30
2019-01-02T12:01:28.124Z,3.20
2019-01-02T12:04:50.787Z,3.20
2019-01-02T12:08:13.757Z,3.10
2019-01-02T12:11:36.762Z,3.00
2019-01-02T12:14:59.350Z,2.90
2019-01-02T12:18:21.868Z,2.90
2019-01-02T12:21:44.631Z,2.90
2019-01-02T12:25:07.412Z,3.00
2019-01-02T12:28:29.862Z,3.10
2019-01-02T12:31:52.099Z,3.20
2019-01-02T12:35:14.779Z,3.20
2019-01-02T12:38:37.078Z,3.30
2019-01-02T12:41:59.602Z,3.30
2019-01-02T12:45:22.096Z,3.30
2019-01-02T12:48:44.794Z,3.20
2019-01-02T12:52:07.246Z,3.10
2019-01-02T12:55:29.606Z,3.10
2019-01-02T12:58:52.062Z,3.10
2019-01-02T13:02:45.998Z,3.10
2019-01-02T13:06:55.734Z,3.10
2019-01-02T13:10:58.053Z,3.20
2019-01-02T13:15:10.448Z,3.20
2019-01-02T13:19:09.616Z,3.30
2019-01-02T13:23:00.133Z,3.30
2019-01-02T13:27:06.034Z,3.20
2019-01-02T13:31:05.572Z,3.20
2019-01-02T13:34:49.091Z,3.10
2019-01-02T13:38:32.896Z,3.10
2019-01-02T13:42:09.694Z,3.10
2019-01-02T13:45:39.713Z,3.20
2019-01-02T13:49:40.566Z,3.20
2019-01-02T13:53:05.592Z,3.30
2019-01-02T13:56:28.108Z,3.10
2019-01-02T13:59:50.241Z,3.10
2019-01-02T14:03:12.346Z,3.10
2019-01-02T14:06:34.701Z,3.20
2019-01-02T14:09:57.046Z,3.20
2019-01-02T14:13:19.458Z,3.10
2019-01-02T14:16:41.915Z,3.10
2019-01-02T14:20:05.182Z,3.00
2019-01-02T14:23:27.842Z,3.00
2019-01-02T14:26:50.256Z,2.90
2019-01-02T14:30:12.833Z,2.90
2019-01-02T14:33:35.506Z,2.90
2019-01-02T14:36:57.698Z,2.90
2019-01-02T14:40:20.330Z,2.90
2019-01-02T14:43:42.870Z,2.90
2019-01-02T14:47:05.678Z,2.40
2019-01-02T14:50:28.174Z,2.30
2019-01-02T14:53:50.919Z,2.40
2019-01-02T14:57:13.637Z,2.40
2019-01-02T15:00:36.261Z,2.30
2019-01-02T15:03:59.010Z,2.30
2019-01-02T15:07:21.245Z,2.30
2019-01-02T15:10:43.954Z,2.30
2019-01-02T15:14:06.383Z,2.30
2019-01-02T15:17:29.045Z,2.30
2019-01-02T15:20:51.763Z,2.20
2019-01-02T15:24:13.907Z,2.20
2019-01-02T15:27:36.317Z,2.20
2019-01-02T15:30:58.786Z,2.20
2019-01-02T15:34:21.098Z,2.00
2019-01-02T15:37:43.500Z,1.90
2019-01-02T15:41:05.958Z,1.90
2019-01-02T15:44:28.753Z,1.90
2019-01-02T15:47:51.194Z,2.00
2019-01-02T15:51:13.780Z,2.00
2019-01-02T15:54:36.566Z,2.00
2019-01-02T15:57:59.291Z,2.00
2019-01-02T16:01:21.710Z,2.00
2019-01-02T16:04:43.868Z,1.90
2019-01-02T16:08:06.552Z,2.00
2019-01-02T16:11:29.281Z,2.10
2019-01-02T16:14:51.894Z,2.00
2019-01-02T16:18:14.385Z,2.00
2019-01-02T16:21:37.156Z,2.00
2019-01-02T16:25:00.102Z,2.00
2019-01-02T16:28:22.563Z,2.00
2019-01-02T16:31:45.176Z,2.00
2019-01-02T16:35:08.085Z,1.90
2019-01-02T16:38:30.347Z,1.90
2019-01-02T16:41:53.683Z,1.90
2019-01-02T16:45:16.562Z,1.90
2019-01-02T16:48:39.061Z,1.90
2019-01-02T16:52:01.135Z,1.90
2019-01-02T16:55:23.540Z,1.90
2019-01-02T16:58:45.919Z,1.90
2019-01-02T17:02:07.949Z,1.90
2019-01-02T17:05:30.390Z,1.80
2019-01-02T17:08:52.780Z,1.80
2019-01-02T17:12:15.295Z,1.70
2019-01-02T17:15:37.781Z,1.70
2019-01-02T17:19:00.433Z,1.70
2019-01-02T17:22:23.077Z,1.60
2019-01-02T17:25:45.292Z,1.50
2019-01-02T17:29:07.991Z,1.50
2019-01-02T17:32:39.686Z,1.50
2019-01-02T17:36:02.242Z,1.40
2019-01-02T17:39:24.603Z,1.40
2019-01-02T17:42:46.988Z,1.30
2019-01-02T17:46:09.116Z,1.30
2019-01-02T17:49:31.524Z,1.30
2019-01-02T17:52:54.429Z,1.30
2019-01-02T17:56:16.798Z,1.20
2019-01-02T17:59:39.193Z,1.20
2019-01-02T18:03:01.323Z,1.20
2019-01-02T18:06:23.438Z,1.20
2019-01-02T18:09:45.828Z,1.20
2019-01-02T18:13:08.525Z,1.10
2019-01-02T18:16:31.076Z,1.10
2019-01-02T18:19:53.528Z,1.00
2019-01-02T18:23:15.717Z,1.00
2019-01-02T18:26:38.171Z,1.00
2019-01-02T18:30:00.697Z,0.90
2019-01-02T18:33:23.569Z,0.80
2019-01-02T18:36:46.041Z,0.80
2019-01-02T18:40:08.907Z,0.70
2019-01-02T18:43:31.479Z,0.60
2019-01-02T18:46:54.280Z,0.50
2019-01-02T18:50:17.131Z,0.50
2019-01-02T18:53:39.822Z,0.40
2019-01-02T18:57:02.667Z,0.40
2019-01-02T19:00:26.406Z,0.40
2019-01-02T19:03:49.261Z,0.40
2019-01-02T19:07:11.892Z,0.30
2019-01-02T19:10:34.067Z,0.30
2019-01-02T19:13:56.385Z,0.30
2019-01-02T19:17:18.687Z,0.20
2019-01-02T19:20:41.114Z,0.20
2019-01-02T19:24:03.503Z,0.10
2019-01-02T19:27:25.931Z,0.10
2019-01-02T19:30:48.586Z,0.10
2019-01-02T19:34:11.001Z,0.00
2019-01-02T19:37:33.477Z,0.00
2019-01-02T19:40:56.188Z,0.00
2019-01-02T19:44:18.540Z,0.10
2019-01-02T19:47:40.983Z,0.20
2019-01-02T19:51:03.736Z,0.20
2019-01-02T19:54:26.204Z,0.10
2019-01-02T19:57:48.750Z,0.10
2019-01-02T20:01:10.900Z,0.00
2019-01-02T20:04:33.739Z,0.00
2019-01-02T20:07:56.245Z,0.00
2019-01-02T20:11:18.773Z,-0.10
2019-01-02T20:14:41.337Z,-0.20
2019-01-02T20:18:04.083Z,-0.30
2019-01-02T20:21:26.374Z,-0.40
2019-01-02T20:24:48.994Z,-0.30
2019-01-02T20:28:11.814Z,-0.40
2019-01-02T20:31:34.701Z,-0.50
2019-01-02T20:34:57.178Z,-0.60
2019-01-02T20:38:19.705Z,-0.70
2019-01-02T20:41:42.394Z,-0.80
2019-01-02T20:45:05.058Z,-0.80
2019-01-02T20:48:27.541Z,-0.80
2019-01-02T20:51:49.913Z,-0.80
2019-01-02T20:55:12.664Z,-0.90
2019-01-02T20:58:35.054Z,-1.00
2019-01-02T21:01:57.856Z,-1.10
2019-01-02T21:05:20.325Z,-1.20
2019-01-02T21:08:42.919Z,-1.20
2019-01-02T21:12:05.418Z,-1.20
2019-01-02T21:15:27.594Z,-1.30
2019-01-02T21:18:50.107Z,-1.30
2019-01-02T21:22:12.523Z,-1.30
2019-01-02T21:25:34.904Z,-1.30
2019-01-02T21:28:57.600Z,-1.30
2019-01-02T21:32:20.245Z,-1.30
2019-01-02T21:35:42.706Z,-1.40
2019-01-02T21:39:07.955Z,-1.50
2019-01-02T21:42:30.830Z,-1.40
2019-01-02T21:45:53.391Z,-1.20
2019-01-02T21:49:15.590Z,-1.30
2019-01-02T21:52:38.082Z,-1.20
2019-01-02T21:56:00.827Z,-1.20
2019-01-02T21:59:23.248Z,-1.20
2019-01-02T22:02:45.892Z,-1.20
2019-01-02T22:06:08.138Z,-1.20
2019-01-02T22:09:31.037Z,-1.30
2019-01-02T22:12:53.618Z,-1.20
2019-01-02T22:16:16.404Z,-1.30
2019-01-02T22:19:39.386Z,-1.30
2019-01-02T22:23:02.111Z,-1.30
2019-01-02T22:26:24.308Z,-1.30
2019-01-02T22:29:46.825Z,-1.30
2019-01-02T22:33:09.412Z,-1.30
2019-01-02T22:36:31.579Z,-1.40
2019-01-02T22:39:54.068Z,-1.40
2019-01-02T22:43:16.799Z,-1.50
2019-01-02T22:46:39.147Z,-1.50
2019-01-02T22:50:01.493Z,-1.40
2019-01-02T22:53:23.834Z,-1.30
2019-01-02T22:56:46.582Z,-1.30
2019-01-02T23:00:32.712Z,-1.30
2019-01-02T23:04:12.166Z,-1.30
2019-01-02T23:08:00.438Z,-1.40
2019-01-02T23:11:41.899Z,-1.40
2019-01-02T23:15:39.129Z,-1.40
2019-01-02T23:19:21.498Z,-1.50
2019-01-02T23:23:03.396Z,-1.50
2019-01-02T23:26:44.931Z,-1.50
2019-01-02T23:30:23.345Z,-1.40
2019-01-02T23:34:04.712Z,-1.40
2019-01-02T23:37:41.561Z,-1.40
2019-01-02T23:41:22.329Z,-1.50
2019-01-02T23:45:01.725Z,-1.50
2019-01-02T23:48:59.001Z,-1.60
2019-01-02T23:52:39.271Z,-1.50
2019-01-02T23:56:19.935Z,-1.50
